createdAt,value
2023-04-06T00:01:59.720Z,6.53
2023-04-06T00:04:27.714Z,7.17
2023-04-06T00:06:55.360Z,9.53
2023-04-06T00:09:22.970Z,6.77
2023-04-06T00:11:50.573Z,6.83
2023-04-06T00:14:18.645Z,7.30
2023-04-06T00:16:46.274Z,5.83
2023-04-06T00:19:13.859Z,7.20
2023-04-06T00:21:41.565Z,7.77
2023-04-06T00:24:09.200Z,8.50
2023-04-06T00:26:36.722Z,7.27
2023-04-06T00:29:04.430Z,8.73
2023-04-06T00:31:32.012Z,7.00
2023-04-06T00:34:00.561Z,6.50
2023-04-06T00:36:28.258Z,6.57
2023-04-06T00:38:56.298Z,7.03
2023-04-06T00:41:23.849Z,7.40
2023-04-06T00:43:51.396Z,8.03
2023-04-06T00:46:18.979Z,8.00
2023-04-06T00:48:46.543Z,8.07
2023-04-06T00:51:14.086Z,9.83
2023-04-06T00:53:41.586Z,9.37
2023-04-06T00:56:11.545Z,8.70
2023-04-06T00:58:49.846Z,7.93
2023-04-06T01:01:17.778Z,8.13
2023-04-06T01:03:49.753Z,12.17
2023-04-06T01:06:18.643Z,8.37
2023-04-06T01:08:53.350Z,9.80
2023-04-06T01:11:23.425Z,9.23
2023-04-06T01:13:52.379Z,7.23
2023-04-06T01:16:43.675Z,9.03
2023-04-06T01:19:21.661Z,8.37
2023-04-06T01:21:54.304Z,8.17
2023-04-06T01:24:43.001Z,8.10
2023-04-06T01:27:15.657Z,8.40
2023-04-06T01:30:04.021Z,10.77
2023-04-06T01:32:48.338Z,9.37
2023-04-06T01:35:21.012Z,10.43
2023-04-06T01:37:59.560Z,7.87
2023-04-06T01:40:32.090Z,8.20
2023-04-06T01:42:59.658Z,9.63
2023-04-06T01:45:36.070Z,10.03
2023-04-06T01:48:15.994Z,9.43
2023-04-06T01:50:43.678Z,9.50
2023-04-06T01:53:15.535Z,7.50
2023-04-06T01:55:45.013Z,7.90
2023-04-06T01:58:24.051Z,8.40
2023-04-06T02:00:51.874Z,9.30
2023-04-06T02:03:19.557Z,8.63
2023-04-06T02:05:48.045Z,9.60
2023-04-06T02:08:24.810Z,8.43
2023-04-06T02:10:52.368Z,10.70
2023-04-06T02:13:30.964Z,10.30
2023-04-06T02:15:59.760Z,10.27
2023-04-06T02:18:32.696Z,8.20
2023-04-06T02:21:00.274Z,8.33
2023-04-06T02:23:27.915Z,7.63
2023-04-06T02:25:55.509Z,7.10
2023-04-06T02:28:23.270Z,8.60
2023-04-06T02:30:50.982Z,12.40
2023-04-06T02:33:19.369Z,16.23
2023-04-06T02:35:48.657Z,13.40
2023-04-06T02:38:16.216Z,10.53
2023-04-06T02:40:43.839Z,11.27
2023-04-06T02:43:21.568Z,12.87
2023-04-06T02:45:52.174Z,11.87
2023-04-06T02:48:21.677Z,25.37
2023-04-06T02:50:49.194Z,19.33
2023-04-06T02:53:17.003Z,38.97
2023-04-06T02:55:44.631Z,52.73
2023-04-06T02:58:12.765Z,37.80
2023-04-06T03:00:46.483Z,74.30
2023-04-06T03:03:14.223Z,22.17
2023-04-06T03:05:43.494Z,11.60
2023-04-06T03:08:11.509Z,9.30
2023-04-06T03:10:46.674Z,16.77
2023-04-06T03:13:15.822Z,9.60
2023-04-06T03:15:46.924Z,10.80
2023-04-06T03:18:24.185Z,10.27
2023-04-06T03:20:55.029Z,45.40
2023-04-06T03:23:25.837Z,19.93
2023-04-06T03:25:58.122Z,11.60
2023-04-06T03:28:25.767Z,12.77
2023-04-06T03:31:02.827Z,11.20
2023-04-06T03:33:48.900Z,15.30
2023-04-06T03:36:37.227Z,12.50
2023-04-06T03:39:06.544Z,13.07
2023-04-06T03:41:37.031Z,11.97
2023-04-06T03:44:23.683Z,12.40
2023-04-06T03:46:51.292Z,13.67
2023-04-06T03:49:19.515Z,14.27
2023-04-06T03:51:50.409Z,13.40
2023-04-06T03:54:17.913Z,26.03
2023-04-06T03:56:45.495Z,25.87
2023-04-06T03:59:12.987Z,28.07
2023-04-06T04:01:40.672Z,20.33
2023-04-06T04:04:08.376Z,19.27
2023-04-06T04:06:37.522Z,13.30
2023-04-06T04:09:06.160Z,15.87
2023-04-06T04:11:33.655Z,11.57
2023-04-06T04:14:01.179Z,13.00
2023-04-06T04:16:28.931Z,12.43
2023-04-06T04:18:59.840Z,11.70
2023-04-06T04:21:29.094Z,11.63
2023-04-06T04:23:56.688Z,13.73
2023-04-06T04:26:24.278Z,11.73
2023-04-06T04:28:54.808Z,11.30
2023-04-06T04:31:23.666Z,10.30
2023-04-06T04:33:56.422Z,10.13
2023-04-06T04:36:29.800Z,19.60
2023-04-06T04:38:59.181Z,23.77
2023-04-06T04:41:26.711Z,14.13
2023-04-06T04:43:54.731Z,13.00
2023-04-06T04:46:24.406Z,16.80
2023-04-06T04:48:53.441Z,18.17
2023-04-06T04:51:21.038Z,14.87
2023-04-06T04:54:08.439Z,19.20
2023-04-06T04:56:36.170Z,19.00
2023-04-06T04:59:17.518Z,26.60
2023-04-06T05:01:55.370Z,18.43
2023-04-06T05:04:30.646Z,26.47
2023-04-06T05:07:09.404Z,39.93
2023-04-06T05:09:39.340Z,34.67
2023-04-06T05:12:08.149Z,26.47
2023-04-06T05:14:43.538Z,20.03
2023-04-06T05:17:15.907Z,18.57
2023-04-06T05:19:43.441Z,13.83
2023-04-06T05:22:12.576Z,14.47
2023-04-06T05:24:42.834Z,12.57
2023-04-06T05:27:11.677Z,13.87
2023-04-06T05:29:39.720Z,15.00
2023-04-06T05:32:07.827Z,15.57
2023-04-06T05:34:36.289Z,12.63
2023-04-06T05:37:06.016Z,13.20
2023-04-06T05:39:33.547Z,17.17
2023-04-06T05:42:07.439Z,16.73
2023-04-06T05:44:56.327Z,13.67
2023-04-06T05:47:24.058Z,13.03
2023-04-06T05:50:03.789Z,13.70
2023-04-06T05:52:37.344Z,15.90
2023-04-06T05:55:06.052Z,13.90
2023-04-06T05:57:33.921Z,10.67
2023-04-06T06:00:01.555Z,10.80
2023-04-06T06:02:40.935Z,9.43
2023-04-06T06:05:11.869Z,9.63
2023-04-06T06:07:42.523Z,9.87
2023-04-06T06:10:11.874Z,11.17
2023-04-06T06:12:39.624Z,11.27
2023-04-06T06:15:08.533Z,11.83
2023-04-06T06:17:40.287Z,14.40
2023-04-06T06:20:09.416Z,8.73
2023-04-06T06:22:37.469Z,10.97
2023-04-06T06:25:05.330Z,8.23
2023-04-06T06:27:33.006Z,13.70
2023-04-06T06:30:00.843Z,7.63
2023-04-06T06:32:32.013Z,9.17
2023-04-06T06:35:00.528Z,7.77
2023-04-06T06:37:31.091Z,7.23
2023-04-06T06:40:00.285Z,8.13
2023-04-06T06:42:27.891Z,9.07
2023-04-06T06:45:10.324Z,8.67
2023-04-06T06:47:37.887Z,7.20
2023-04-06T06:50:07.342Z,9.27
2023-04-06T06:52:34.961Z,8.73
2023-04-06T06:55:04.206Z,8.77
2023-04-06T06:57:31.820Z,8.80
2023-04-06T07:00:01.038Z,6.30
2023-04-06T07:02:30.114Z,8.57
2023-04-06T07:04:58.535Z,17.30
2023-04-06T07:07:26.141Z,11.13
2023-04-06T07:09:54.366Z,14.07
2023-04-06T07:12:22.000Z,10.27
2023-04-06T07:14:49.560Z,10.47
2023-04-06T07:17:18.321Z,7.57
2023-04-06T07:19:46.626Z,11.20
2023-04-06T07:22:15.020Z,7.60
2023-04-06T07:24:42.554Z,11.40
2023-04-06T07:27:10.121Z,10.20
2023-04-06T07:29:37.759Z,16.03
2023-04-06T07:32:05.586Z,8.00
2023-04-06T07:34:35.068Z,11.93
2023-04-06T07:37:04.241Z,7.20
2023-04-06T07:39:32.484Z,9.30
2023-04-06T07:42:01.153Z,6.50
2023-04-06T07:44:28.769Z,7.10
2023-04-06T07:46:57.184Z,5.67
2023-04-06T07:49:25.177Z,7.37
2023-04-06T07:51:53.002Z,7.17
2023-04-06T07:54:22.016Z,6.70
2023-04-06T07:56:49.501Z,7.50
2023-04-06T07:59:17.037Z,6.90
2023-04-06T08:01:44.629Z,5.97
2023-04-06T08:04:12.553Z,6.90
2023-04-06T08:06:42.010Z,6.67
2023-04-06T08:09:09.574Z,5.33
2023-04-06T08:11:37.050Z,8.33
2023-04-06T08:14:04.672Z,8.90
2023-04-06T08:16:32.159Z,5.93
2023-04-06T08:18:59.675Z,5.80
2023-04-06T08:21:27.165Z,5.10
2023-04-06T08:23:54.694Z,5.47
2023-04-06T08:26:22.267Z,7.73
2023-04-06T08:28:49.819Z,6.23
2023-04-06T08:31:17.606Z,5.53
2023-04-06T08:33:45.611Z,6.13
2023-04-06T08:36:16.106Z,16.47
2023-04-06T08:38:46.577Z,7.33
2023-04-06T08:41:15.927Z,6.70
2023-04-06T08:43:45.087Z,5.33
2023-04-06T08:46:13.536Z,5.63
2023-04-06T08:48:43.467Z,6.53
2023-04-06T08:51:12.053Z,4.73
2023-04-06T08:53:40.697Z,9.50
2023-04-06T08:56:09.052Z,6.70
2023-04-06T08:58:40.165Z,5.30
2023-04-06T09:01:16.465Z,4.07
2023-04-06T09:03:44.985Z,4.70
2023-04-06T09:06:13.844Z,10.63
2023-04-06T09:08:43.688Z,3.90
2023-04-06T09:11:11.974Z,5.90
2023-04-06T09:13:57.272Z,6.53
2023-04-06T09:16:25.513Z,4.73
2023-04-06T09:18:53.000Z,6.40
2023-04-06T09:21:23.741Z,5.37
2023-04-06T09:24:05.432Z,15.97
2023-04-06T09:26:34.864Z,10.37
2023-04-06T09:29:02.646Z,5.63
2023-04-06T09:31:35.794Z,6.10
2023-04-06T09:34:03.707Z,5.43
2023-04-06T09:36:36.971Z,6.03
2023-04-06T09:39:06.300Z,6.17
2023-04-06T09:41:37.389Z,5.60
2023-04-06T09:44:10.781Z,7.23
2023-04-06T09:46:55.788Z,8.57
2023-04-06T09:49:29.745Z,5.30
2023-04-06T09:52:08.699Z,5.90
2023-04-06T09:54:37.757Z,5.63
2023-04-06T09:57:27.114Z,5.73
2023-04-06T10:00:17.355Z,7.17
2023-04-06T10:03:00.416Z,5.47
2023-04-06T10:05:39.382Z,6.63
2023-04-06T10:08:17.146Z,6.00
2023-04-06T10:10:45.066Z,5.57
2023-04-06T10:13:13.776Z,5.37
2023-04-06T10:15:41.738Z,5.37
2023-04-06T10:18:10.624Z,5.40
2023-04-06T10:20:57.464Z,5.20
2023-04-06T10:23:48.626Z,6.27
2023-04-06T10:26:21.664Z,9.77
2023-04-06T10:28:51.074Z,6.60
2023-04-06T10:31:28.904Z,6.23
2023-04-06T10:33:59.319Z,5.70
2023-04-06T10:36:34.702Z,6.27
2023-04-06T10:39:05.320Z,5.90
2023-04-06T10:41:46.785Z,5.40
2023-04-06T10:44:26.918Z,5.37
2023-04-06T10:47:02.564Z,6.00
2023-04-06T10:49:30.122Z,5.70
2023-04-06T10:51:59.208Z,5.77
2023-04-06T10:54:29.571Z,5.10
2023-04-06T10:56:57.576Z,5.63
2023-04-06T10:59:26.395Z,4.63
2023-04-06T11:01:56.138Z,6.03
2023-04-06T11:04:24.679Z,5.63
2023-04-06T11:06:52.479Z,4.17
2023-04-06T11:09:32.424Z,5.50
2023-04-06T11:12:00.221Z,5.27
2023-04-06T11:14:27.896Z,4.57
2023-04-06T11:16:55.974Z,5.87
2023-04-06T11:19:23.859Z,4.97
2023-04-06T11:21:52.216Z,6.60
2023-04-06T11:24:22.828Z,5.97
2023-04-06T11:26:54.895Z,7.50
2023-04-06T11:29:27.399Z,7.43
2023-04-06T11:32:04.135Z,5.60
2023-04-06T11:34:39.755Z,4.13
2023-04-06T11:37:13.165Z,4.17
2023-04-06T11:39:51.879Z,5.50
2023-04-06T11:42:37.813Z,4.40
2023-04-06T11:45:06.277Z,5.17
2023-04-06T11:47:39.101Z,4.47
2023-04-06T11:50:15.499Z,4.47
2023-04-06T11:52:44.010Z,3.10
2023-04-06T11:55:17.438Z,4.47
2023-04-06T11:57:46.241Z,10.53
2023-04-06T12:00:14.634Z,3.60
2023-04-06T12:02:48.922Z,4.27
2023-04-06T12:05:16.689Z,3.63
2023-04-06T12:07:44.198Z,4.60
2023-04-06T12:10:11.945Z,3.30
2023-04-06T12:12:39.631Z,4.10
2023-04-06T12:15:08.199Z,3.53
2023-04-06T12:17:35.830Z,5.17
2023-04-06T12:20:09.456Z,3.73
2023-04-06T12:22:45.706Z,4.07
2023-04-06T12:25:13.305Z,3.23
2023-04-06T12:27:41.209Z,4.27
2023-04-06T12:30:09.806Z,3.53
2023-04-06T12:32:37.427Z,2.40
2023-04-06T12:35:05.407Z,5.07
2023-04-06T12:37:33.304Z,2.87
2023-04-06T12:40:01.485Z,4.90
2023-04-06T12:42:29.011Z,8.40
2023-04-06T12:44:56.759Z,4.20
2023-04-06T12:47:24.418Z,3.40
2023-04-06T12:49:52.317Z,3.17
2023-04-06T12:52:19.965Z,6.70
2023-04-06T12:54:49.821Z,3.20
2023-04-06T12:57:18.443Z,4.60
2023-04-06T12:59:46.260Z,5.43
2023-04-06T13:02:13.886Z,2.93
2023-04-06T13:04:41.480Z,7.87
2023-04-06T13:07:09.306Z,3.80
2023-04-06T13:09:36.797Z,4.10
2023-04-06T13:12:04.616Z,5.27
2023-04-06T13:14:32.932Z,7.70
2023-04-06T13:17:01.226Z,6.50
2023-04-06T13:19:28.823Z,3.23
2023-04-06T13:21:56.407Z,7.43
2023-04-06T13:24:24.287Z,4.73
2023-04-06T13:26:51.887Z,6.13
2023-04-06T13:29:19.422Z,7.40
2023-04-06T13:31:47.152Z,4.30
2023-04-06T13:34:14.771Z,6.13
2023-04-06T13:36:43.716Z,4.37
2023-04-06T13:39:11.308Z,3.77
2023-04-06T13:41:39.002Z,4.07
2023-04-06T13:44:06.636Z,8.83
2023-04-06T13:46:34.254Z,7.60
2023-04-06T13:49:01.812Z,6.43
2023-04-06T13:51:29.371Z,5.50
2023-04-06T13:53:56.812Z,9.33
2023-04-06T13:56:24.319Z,11.10
2023-04-06T13:58:54.411Z,10.03
2023-04-06T14:01:21.921Z,7.67
2023-04-06T14:03:51.164Z,11.07
2023-04-06T14:06:30.518Z,10.67
2023-04-06T14:09:02.419Z,8.83
2023-04-06T14:11:30.325Z,5.17
2023-04-06T14:13:58.735Z,5.70
2023-04-06T14:16:27.413Z,9.97
2023-04-06T14:18:56.205Z,14.50
2023-04-06T14:21:23.868Z,7.17
2023-04-06T14:23:51.857Z,7.93
2023-04-06T14:26:20.536Z,9.50
2023-04-06T14:28:48.027Z,10.40
2023-04-06T14:31:17.230Z,9.00
2023-04-06T14:33:45.320Z,7.40
2023-04-06T14:36:12.948Z,6.80
2023-04-06T14:38:41.569Z,6.83
2023-04-06T14:41:16.049Z,6.07
2023-04-06T14:43:43.710Z,6.43
2023-04-06T14:46:11.334Z,4.20
2023-04-06T14:48:38.919Z,4.63
2023-04-06T14:51:06.788Z,7.43
2023-04-06T14:53:34.444Z,4.43
2023-04-06T14:56:01.912Z,6.13
2023-04-06T14:58:29.550Z,5.40
2023-04-06T15:01:01.457Z,5.83
2023-04-06T15:03:30.322Z,5.70
2023-04-06T15:05:58.554Z,8.23
2023-04-06T15:08:26.387Z,6.20
2023-04-06T15:10:55.760Z,4.87
2023-04-06T15:13:23.221Z,6.13
2023-04-06T15:15:52.843Z,7.67
2023-04-06T15:18:21.028Z,7.03
2023-04-06T15:20:48.760Z,5.93
2023-04-06T15:23:16.799Z,6.13
2023-04-06T15:25:45.478Z,7.57
2023-04-06T15:28:12.925Z,5.83
2023-04-06T15:30:40.652Z,7.23
2023-04-06T15:33:09.833Z,11.07
2023-04-06T15:35:40.854Z,7.10
2023-04-06T15:38:12.093Z,5.20
2023-04-06T15:40:48.286Z,7.20
2023-04-06T15:43:16.590Z,8.60
2023-04-06T15:45:44.156Z,8.10
2023-04-06T15:48:11.681Z,7.70
2023-04-06T15:50:41.637Z,5.70
2023-04-06T15:53:09.176Z,6.27
2023-04-06T15:55:37.776Z,9.63
2023-04-06T15:58:07.179Z,9.90
2023-04-06T16:00:34.754Z,7.10
2023-04-06T16:03:02.703Z,8.27
2023-04-06T16:05:34.527Z,8.20
2023-04-06T16:08:02.395Z,9.60
2023-04-06T16:10:29.904Z,10.40
2023-04-06T16:12:57.443Z,11.00
2023-04-06T16:15:24.927Z,7.00
2023-04-06T16:17:52.799Z,8.57
2023-04-06T16:20:20.267Z,6.93
2023-04-06T16:22:49.758Z,7.97
2023-04-06T16:25:17.466Z,8.63
2023-04-06T16:27:44.962Z,6.53
2023-04-06T16:30:13.447Z,9.93
2023-04-06T16:32:41.574Z,12.63
2023-04-06T16:35:09.469Z,13.10
2023-04-06T16:37:37.031Z,8.63
2023-04-06T16:40:05.018Z,8.63
2023-04-06T16:42:32.465Z,9.87
2023-04-06T16:45:19.907Z,12.17
2023-04-06T16:47:49.550Z,9.30
2023-04-06T16:50:18.355Z,10.80
2023-04-06T16:52:46.876Z,8.47
2023-04-06T16:55:14.591Z,10.73
2023-04-06T16:57:42.186Z,21.30
2023-04-06T17:00:10.904Z,8.50
2023-04-06T17:02:41.528Z,13.60
2023-04-06T17:05:09.701Z,9.40
2023-04-06T17:07:37.832Z,10.10
2023-04-06T17:10:07.081Z,9.07
2023-04-06T17:12:34.764Z,10.20
2023-04-06T17:15:02.479Z,10.30
2023-04-06T17:17:30.960Z,13.37
2023-04-06T17:20:01.043Z,11.77
2023-04-06T17:22:38.826Z,12.47
2023-04-06T17:25:07.732Z,7.83
2023-04-06T17:27:36.194Z,10.60
2023-04-06T17:30:09.573Z,10.63
2023-04-06T17:32:39.396Z,12.47
2023-04-06T17:35:11.673Z,12.60
2023-04-06T17:37:43.399Z,11.17
2023-04-06T17:40:12.082Z,8.70
2023-04-06T17:42:42.040Z,11.73
2023-04-06T17:45:12.840Z,10.37
2023-04-06T17:47:44.001Z,14.80
2023-04-06T17:52:56.760Z,17.40
2023-04-06T17:55:26.149Z,22.50
2023-04-06T17:57:54.923Z,10.93
2023-04-06T18:00:25.463Z,10.10
2023-04-06T18:02:55.572Z,8.83
2023-04-06T18:05:25.393Z,9.97
2023-04-06T18:07:56.652Z,8.13
2023-04-06T18:10:28.944Z,8.70
2023-04-06T18:13:01.771Z,7.57
2023-04-06T18:15:29.402Z,7.80
2023-04-06T18:17:57.049Z,7.33
2023-04-06T18:20:25.407Z,7.50
2023-04-06T18:22:56.780Z,7.70
2023-04-06T18:25:25.423Z,7.47
2023-04-06T18:27:53.048Z,7.93
2023-04-06T18:30:23.136Z,10.27
2023-04-06T18:32:54.062Z,8.40
2023-04-06T18:35:24.482Z,8.80
2023-04-06T18:37:52.248Z,8.20
2023-04-06T18:40:39.415Z,10.50
2023-04-06T18:43:10.003Z,9.17
2023-04-06T18:45:39.127Z,7.97
2023-04-06T18:48:08.305Z,7.57
2023-04-06T18:50:36.458Z,15.70
2023-04-06T18:53:04.047Z,9.40
2023-04-06T18:55:34.504Z,10.37
2023-04-06T18:58:02.080Z,10.77
2023-04-06T19:00:31.629Z,13.33
2023-04-06T19:02:59.347Z,8.70
2023-04-06T19:05:27.616Z,11.13
2023-04-06T19:07:55.388Z,8.77
2023-04-06T19:10:22.892Z,11.97
2023-04-06T19:12:51.764Z,9.90
2023-04-06T19:15:19.338Z,8.90
2023-04-06T19:17:47.847Z,8.87
2023-04-06T19:20:15.414Z,9.63
2023-04-06T19:22:44.614Z,13.60
2023-04-06T19:25:12.654Z,11.13
2023-04-06T19:27:40.258Z,15.07
2023-04-06T19:30:09.877Z,10.97
2023-04-06T19:32:40.173Z,11.83
2023-04-06T19:35:08.858Z,13.33
2023-04-06T19:37:37.952Z,8.33
2023-04-06T19:40:10.486Z,12.67
2023-04-06T19:42:38.876Z,11.47
2023-04-06T19:45:09.019Z,10.17
2023-04-06T19:47:36.798Z,12.73
2023-04-06T19:50:07.443Z,14.23
2023-04-06T19:52:35.826Z,18.00
2023-04-06T19:55:04.154Z,27.77
2023-04-06T19:57:32.676Z,15.67
2023-04-06T20:00:01.564Z,17.27
2023-04-06T20:02:38.431Z,15.43
2023-04-06T20:05:09.385Z,17.03
2023-04-06T20:07:39.007Z,15.67
2023-04-06T20:10:08.734Z,13.63
2023-04-06T20:12:36.371Z,14.67
2023-04-06T20:15:04.566Z,11.50
2023-04-06T20:17:32.088Z,11.97
2023-04-06T20:20:00.971Z,11.97
2023-04-06T20:22:28.417Z,12.17
2023-04-06T20:24:56.109Z,12.00
2023-04-06T20:27:23.680Z,10.57
2023-04-06T20:29:51.196Z,10.57
2023-04-06T20:32:21.000Z,9.83
2023-04-06T20:34:49.675Z,10.43
2023-04-06T20:37:18.642Z,12.03
2023-04-06T20:39:47.189Z,15.17
2023-04-06T20:42:14.846Z,11.83
2023-04-06T20:44:42.881Z,13.83
2023-04-06T20:47:10.453Z,14.67
2023-04-06T20:49:37.901Z,13.10
2023-04-06T20:52:05.512Z,11.03
2023-04-06T20:54:32.995Z,14.17
2023-04-06T20:57:01.973Z,16.23
2023-04-06T20:59:29.462Z,12.40
2023-04-06T21:01:57.153Z,11.20
2023-04-06T21:04:26.009Z,11.50
2023-04-06T21:06:54.950Z,9.67
2023-04-06T21:09:22.503Z,11.77
2023-04-06T21:11:50.017Z,12.17
2023-04-06T21:14:20.915Z,10.90
2023-04-06T21:16:48.754Z,13.97
2023-04-06T21:19:16.272Z,13.60
2023-04-06T21:21:43.759Z,12.37
2023-04-06T21:24:11.192Z,11.27
2023-04-06T21:26:38.764Z,12.10
2023-04-06T21:29:06.331Z,12.70
2023-04-06T21:31:35.761Z,12.13
2023-04-06T21:34:03.496Z,10.47
2023-04-06T21:36:32.749Z,11.00
2023-04-06T21:39:01.172Z,15.00
2023-04-06T21:41:32.586Z,12.93
2023-04-06T21:44:00.388Z,12.43
2023-04-06T21:46:28.192Z,11.93
2023-04-06T21:48:55.905Z,11.53
2023-04-06T21:51:24.295Z,13.37
2023-04-06T21:53:53.825Z,13.40
2023-04-06T21:56:23.853Z,11.17
2023-04-06T21:58:52.818Z,13.47
2023-04-06T22:01:21.517Z,10.30
2023-04-06T22:03:49.532Z,15.17
2023-04-06T22:06:17.387Z,12.23
2023-04-06T22:08:48.212Z,12.87
2023-04-06T22:11:16.197Z,12.57
2023-04-06T22:13:44.335Z,17.43
2023-04-06T22:16:12.154Z,14.50
2023-04-06T22:18:39.882Z,11.83
2023-04-06T22:21:08.213Z,9.93
2023-04-06T22:23:37.281Z,11.67
2023-04-06T22:26:09.324Z,11.50
2023-04-06T22:28:36.976Z,13.47
2023-04-06T22:31:04.774Z,15.40
2023-04-06T22:33:32.437Z,9.60
2023-04-06T22:35:59.923Z,10.63
2023-04-06T22:38:27.441Z,8.83
2023-04-06T22:40:54.910Z,12.60
2023-04-06T22:43:22.444Z,13.10
2023-04-06T22:45:49.916Z,10.20
2023-04-06T22:48:17.448Z,9.47
2023-04-06T22:50:45.038Z,11.63
2023-04-06T22:53:12.609Z,10.43
2023-04-06T22:55:43.881Z,10.67
2023-04-06T22:58:11.632Z,12.30
2023-04-06T23:00:39.051Z,12.40
2023-04-06T23:03:06.767Z,10.33
2023-04-06T23:05:34.544Z,11.30
2023-04-06T23:08:03.256Z,12.37
2023-04-06T23:10:33.093Z,12.17
2023-04-06T23:13:00.566Z,10.50
2023-04-06T23:15:28.181Z,9.97
2023-04-06T23:17:55.747Z,11.33
2023-04-06T23:20:23.349Z,12.70
2023-04-06T23:22:51.000Z,10.27
2023-04-06T23:25:18.756Z,10.23
2023-04-06T23:27:46.278Z,11.13
2023-04-06T23:30:13.890Z,11.27
2023-04-06T23:32:41.649Z,9.73
2023-04-06T23:35:09.803Z,10.97
2023-04-06T23:37:37.335Z,11.43
2023-04-06T23:40:05.451Z,11.57
2023-04-06T23:42:32.966Z,10.83
2023-04-06T23:45:02.355Z,10.60
2023-04-06T23:47:30.356Z,11.70
2023-04-06T23:49:58.208Z,9.03
2023-04-06T23:52:29.798Z,12.73
2023-04-06T23:54:57.370Z,10.63
2023-04-06T23:57:24.969Z,13.50
2023-04-06T23:59:52.509Z,11.00
